createdAt,value
2022-10-18T00:02:08.351Z,15.45
2022-10-18T00:04:34.999Z,16.10
2022-10-18T00:07:01.564Z,13.77
2022-10-18T00:09:28.152Z,15.27
2022-10-18T00:11:55.693Z,15.98
2022-10-18T00:14:22.835Z,16.73
2022-10-18T00:16:49.466Z,11.48
2022-10-18T00:19:16.002Z,15.45
2022-10-18T00:24:14.354Z,8.70
2022-10-18T00:26:40.936Z,9.45
2022-10-18T00:29:07.494Z,10.18
2022-10-18T00:31:36.208Z,11.65
2022-10-18T00:34:06.174Z,9.80
2022-10-18T00:36:34.321Z,14.15
2022-10-18T00:39:02.491Z,8.98
2022-10-18T00:41:31.099Z,7.75
2022-10-18T00:44:07.342Z,6.53
2022-10-18T00:46:36.131Z,6.88
2022-10-18T00:49:06.645Z,9.98
2022-10-18T00:52:13.536Z,10.18
2022-10-18T00:54:42.097Z,11.65
2022-10-18T00:57:08.904Z,8.55
2022-10-18T00:59:36.007Z,8.73
2022-10-18T01:02:02.894Z,12.23
2022-10-18T01:04:29.448Z,9.63
2022-10-18T01:07:25.475Z,42.17
2022-10-18T01:10:13.966Z,11.60
2022-10-18T01:13:07.860Z,136.13
2022-10-18T01:15:57.511Z,1999.90
2022-10-18T01:18:40.411Z,1999.90
2022-10-18T01:21:23.089Z,1999.90
2022-10-18T01:24:20.595Z,1999.90
2022-10-18T01:27:08.610Z,1999.90
2022-10-18T01:29:53.818Z,1999.90
2022-10-18T01:32:27.184Z,1999.90
2022-10-18T01:34:59.816Z,1999.90
2022-10-18T01:37:28.171Z,6.60
2022-10-18T01:39:56.017Z,8.32
2022-10-18T01:44:50.873Z,7.75
2022-10-18T01:47:18.359Z,7.20
2022-10-18T01:49:44.935Z,8.77
2022-10-18T01:52:15.865Z,12.55
2022-10-18T01:54:48.985Z,9.25
2022-10-18T01:57:21.471Z,10.68
2022-10-18T02:00:29.875Z,9.05
2022-10-18T02:03:06.988Z,7.60
2022-10-18T02:05:40.469Z,6.80
2022-10-18T02:08:26.362Z,11.68
2022-10-18T02:11:01.574Z,12.65
2022-10-18T02:13:33.645Z,11.10
2022-10-18T02:16:05.413Z,8.80
2022-10-18T02:18:55.983Z,9.70
2022-10-18T02:21:23.174Z,9.35
2022-10-18T02:23:50.204Z,8.60
2022-10-18T02:26:16.903Z,8.18
2022-10-18T02:28:43.994Z,9.07
2022-10-18T02:31:24.131Z,11.90
2022-10-18T02:33:52.794Z,6.82
2022-10-18T02:36:27.416Z,6.68
2022-10-18T02:38:58.821Z,8.48
2022-10-18T02:41:26.607Z,10.13
2022-10-18T02:46:20.505Z,9.65
2022-10-18T02:48:47.121Z,14.30
2022-10-18T02:51:13.664Z,6.32
2022-10-18T02:53:40.317Z,8.50
2022-10-18T02:56:06.970Z,7.72
2022-10-18T02:58:33.455Z,11.43
2022-10-18T03:01:00.381Z,7.78
2022-10-18T03:03:26.954Z,6.65
2022-10-18T03:05:53.494Z,6.32
2022-10-18T03:08:20.120Z,9.45
2022-10-18T03:10:47.068Z,10.77
2022-10-18T03:13:13.941Z,7.68
2022-10-18T03:15:40.554Z,5.95
2022-10-18T03:18:07.129Z,5.75
2022-10-18T03:20:35.175Z,9.30
2022-10-18T03:23:03.236Z,8.50
2022-10-18T03:25:29.768Z,6.28
2022-10-18T03:27:56.319Z,8.52
2022-10-18T03:30:22.837Z,8.73
2022-10-18T03:32:49.372Z,13.13
2022-10-18T03:35:16.081Z,6.25
2022-10-18T03:37:42.679Z,8.75
2022-10-18T03:40:09.468Z,8.30
2022-10-18T03:42:36.203Z,8.55
2022-10-18T03:45:02.790Z,6.53
2022-10-18T03:47:29.303Z,9.55
2022-10-18T03:49:57.237Z,9.57
2022-10-18T03:52:24.361Z,8.48
2022-10-18T03:54:50.878Z,6.53
2022-10-18T03:57:17.406Z,6.50
2022-10-18T03:59:44.181Z,10.65
2022-10-18T04:02:10.785Z,9.10
2022-10-18T04:04:37.472Z,8.65
2022-10-18T04:07:04.074Z,11.27
2022-10-18T04:09:30.639Z,6.72
2022-10-18T04:11:57.166Z,11.50
2022-10-18T04:14:23.727Z,8.60
2022-10-18T04:16:50.334Z,7.35
2022-10-18T04:19:16.984Z,6.30
2022-10-18T04:21:43.492Z,10.25
2022-10-18T04:24:10.067Z,8.95
2022-10-18T04:26:36.653Z,8.07
2022-10-18T04:29:03.964Z,8.27
2022-10-18T04:31:30.802Z,5.47
2022-10-18T04:33:57.312Z,8.95
2022-10-18T04:36:23.800Z,9.02
2022-10-18T04:38:50.293Z,6.50
2022-10-18T04:41:16.813Z,5.88
2022-10-18T04:43:43.407Z,8.43
2022-10-18T04:46:10.007Z,6.97
2022-10-18T04:48:36.583Z,5.75
2022-10-18T04:51:03.270Z,7.07
2022-10-18T04:53:29.876Z,6.28
2022-10-18T04:55:56.455Z,6.82
2022-10-18T04:58:23.542Z,7.65
2022-10-18T05:00:50.365Z,8.00
2022-10-18T05:03:17.049Z,8.45
2022-10-18T05:06:00.927Z,14.98
2022-10-18T05:08:27.849Z,6.38
2022-10-18T05:10:54.556Z,9.20
2022-10-18T05:13:21.186Z,7.55
2022-10-18T05:15:47.776Z,10.82
2022-10-18T05:18:14.536Z,7.38
2022-10-18T05:20:41.055Z,10.63
2022-10-18T05:23:10.747Z,6.43
2022-10-18T05:25:41.210Z,7.43
2022-10-18T05:28:11.063Z,7.63
2022-10-18T05:30:47.821Z,8.52
2022-10-18T05:33:14.367Z,9.00
2022-10-18T05:35:40.840Z,6.50
2022-10-18T05:38:07.667Z,10.95
2022-10-18T05:40:34.253Z,6.00
2022-10-18T05:43:00.782Z,9.23
2022-10-18T05:45:27.412Z,7.60
2022-10-18T05:47:54.615Z,7.93
2022-10-18T05:50:21.139Z,8.68
2022-10-18T05:52:47.637Z,8.15
2022-10-18T05:55:14.257Z,12.23
2022-10-18T05:57:40.844Z,12.48
2022-10-18T06:00:08.097Z,7.20
2022-10-18T06:02:38.399Z,7.35
2022-10-18T06:05:05.166Z,9.20
2022-10-18T06:07:31.958Z,8.93
2022-10-18T06:09:58.686Z,10.55
2022-10-18T06:12:25.317Z,9.13
2022-10-18T06:14:51.896Z,8.80
2022-10-18T06:17:18.848Z,8.63
2022-10-18T06:19:45.593Z,8.77
2022-10-18T06:22:12.495Z,6.78
2022-10-18T06:24:38.987Z,9.27
2022-10-18T06:27:08.837Z,8.77
2022-10-18T06:29:36.226Z,9.05
2022-10-18T06:32:03.353Z,10.18
2022-10-18T06:34:29.896Z,10.00
2022-10-18T06:36:58.655Z,7.05
2022-10-18T06:39:25.864Z,9.00
2022-10-18T06:41:52.516Z,10.73
2022-10-18T06:44:20.353Z,8.10
2022-10-18T06:46:48.093Z,10.10
2022-10-18T06:51:46.140Z,7.38
2022-10-18T06:54:18.188Z,8.40
2022-10-18T06:56:45.150Z,7.32
2022-10-18T06:59:11.720Z,8.45
2022-10-18T07:01:38.455Z,7.18
2022-10-18T07:04:05.112Z,529.55
2022-10-18T07:06:31.601Z,6.88
2022-10-18T07:08:58.271Z,8.10
2022-10-18T07:11:26.742Z,7.10
2022-10-18T07:13:54.488Z,5.18
2022-10-18T07:16:21.371Z,6.97
2022-10-18T07:18:50.446Z,7.85
2022-10-18T07:21:19.376Z,9.63
2022-10-18T07:23:46.359Z,6.72
2022-10-18T07:26:20.018Z,8.85
2022-10-18T07:28:49.960Z,6.47
2022-10-18T07:31:16.599Z,8.55
2022-10-18T07:33:43.156Z,7.95
2022-10-18T07:36:11.045Z,6.82
2022-10-18T07:38:37.709Z,7.53
2022-10-18T07:41:06.802Z,6.47
2022-10-18T07:43:33.867Z,7.13
2022-10-18T07:46:02.850Z,6.25
2022-10-18T07:48:29.823Z,7.78
2022-10-18T07:51:00.625Z,7.88
2022-10-18T07:53:29.127Z,7.40
2022-10-18T07:56:01.341Z,7.63
2022-10-18T07:58:31.784Z,6.72
2022-10-18T08:01:02.370Z,9.48
2022-10-18T08:03:28.933Z,5.85
2022-10-18T08:05:55.567Z,10.50
2022-10-18T08:08:23.819Z,7.35
2022-10-18T08:10:50.910Z,9.77
2022-10-18T08:13:17.811Z,6.80
2022-10-18T08:15:44.562Z,6.68
2022-10-18T08:18:11.478Z,7.10
2022-10-18T08:20:42.730Z,5.85
2022-10-18T08:23:09.436Z,5.90
2022-10-18T08:28:07.564Z,11.65
2022-10-18T08:30:35.454Z,9.63
2022-10-18T08:33:02.824Z,7.88
2022-10-18T08:35:29.430Z,7.97
2022-10-18T08:37:55.949Z,14.90
2022-10-18T08:40:22.669Z,8.50
2022-10-18T08:43:22.029Z,8.38
2022-10-18T08:45:49.697Z,9.80
2022-10-18T08:48:39.053Z,11.88
2022-10-18T08:51:27.274Z,6.40
2022-10-18T08:54:11.388Z,9.10
2022-10-18T08:56:39.541Z,9.93
2022-10-18T08:59:10.357Z,8.48
2022-10-18T09:02:01.583Z,9.82
2022-10-18T09:05:07.103Z,11.07
2022-10-18T09:08:23.257Z,269.70
2022-10-18T09:11:06.111Z,12.07
2022-10-18T09:13:59.751Z,9.60
2022-10-18T09:16:40.411Z,9.38
2022-10-18T09:19:46.087Z,8.90
2022-10-18T09:22:14.423Z,8.85
2022-10-18T09:24:46.641Z,8.80
2022-10-18T09:27:18.887Z,11.07
2022-10-18T09:29:49.059Z,9.40
2022-10-18T09:32:25.420Z,9.75
2022-10-18T09:34:55.587Z,7.07
2022-10-18T09:37:22.338Z,11.20
2022-10-18T09:39:50.736Z,8.18
2022-10-18T09:42:36.051Z,11.07
2022-10-18T09:45:08.552Z,9.23
2022-10-18T09:47:39.451Z,11.77
2022-10-18T09:50:18.049Z,14.38
2022-10-18T09:52:53.441Z,5.65
2022-10-18T09:55:23.240Z,6.38
2022-10-18T09:57:56.476Z,9.13
2022-10-18T10:00:29.058Z,11.75
2022-10-18T10:02:56.176Z,7.47
2022-10-18T10:05:22.736Z,7.85
2022-10-18T10:07:49.376Z,7.40
2022-10-18T10:10:24.014Z,7.40
2022-10-18T10:13:05.896Z,8.85
2022-10-18T10:15:37.081Z,30.83
2022-10-18T10:18:19.242Z,7.30
2022-10-18T10:20:49.017Z,7.22
2022-10-18T10:23:30.747Z,12.68
2022-10-18T10:26:25.332Z,7.65
2022-10-18T10:28:52.197Z,9.95
2022-10-18T10:31:24.745Z,10.20
2022-10-18T10:34:18.485Z,7.75
2022-10-18T10:36:53.199Z,7.80
2022-10-18T10:39:22.331Z,10.57
2022-10-18T10:41:57.374Z,10.48
2022-10-18T10:44:29.610Z,6.78
2022-10-18T10:46:56.739Z,9.10
2022-10-18T10:49:45.767Z,8.05
2022-10-18T10:52:28.553Z,7.75
2022-10-18T10:57:48.725Z,9.55
2022-10-18T11:00:34.169Z,7.57
2022-10-18T11:03:33.749Z,7.25
2022-10-18T11:06:01.698Z,9.70
2022-10-18T11:08:41.133Z,10.15
2022-10-18T11:11:22.852Z,9.63
2022-10-18T11:14:13.257Z,7.50
2022-10-18T11:17:08.076Z,8.13
2022-10-18T11:19:43.005Z,8.15
2022-10-18T11:22:14.277Z,6.57
2022-10-18T11:24:41.419Z,9.98
2022-10-18T11:27:19.447Z,7.35
2022-10-18T11:30:01.510Z,7.95
2022-10-18T11:32:38.461Z,7.95
2022-10-18T11:35:43.481Z,8.27
2022-10-18T11:38:15.806Z,5.03
2022-10-18T11:41:22.528Z,5.70
2022-10-18T11:44:03.100Z,6.40
2022-10-18T11:46:54.841Z,11.27
2022-10-18T11:49:39.133Z,4.80
2022-10-18T11:52:14.022Z,4.15
2022-10-18T11:55:01.962Z,4.30
2022-10-18T11:57:50.409Z,6.05
2022-10-18T12:00:39.362Z,7.53
2022-10-18T12:03:24.340Z,7.53
2022-10-18T12:05:53.211Z,7.25
2022-10-18T12:08:31.509Z,4.90
2022-10-18T12:11:05.920Z,13.43
2022-10-18T12:13:52.364Z,7.28
2022-10-18T12:16:33.790Z,6.53
2022-10-18T12:19:12.541Z,7.70
2022-10-18T12:21:39.360Z,8.02
2022-10-18T12:24:13.595Z,9.35
2022-10-18T12:26:40.288Z,5.95
2022-10-18T12:29:18.384Z,6.35
2022-10-18T12:31:53.798Z,6.70
2022-10-18T12:34:23.838Z,4.65
2022-10-18T12:36:53.299Z,5.75
2022-10-18T12:39:45.089Z,5.70
2022-10-18T12:42:19.157Z,8.15
2022-10-18T12:44:46.476Z,5.38
2022-10-18T12:47:24.711Z,5.05
2022-10-18T12:50:01.975Z,6.40
2022-10-18T12:52:30.605Z,7.78
2022-10-18T12:55:18.285Z,5.10
2022-10-18T12:57:53.996Z,6.90
2022-10-18T13:00:29.705Z,5.47
2022-10-18T13:03:17.908Z,8.07
2022-10-18T13:05:55.933Z,7.18
2022-10-18T13:08:29.038Z,8.18
2022-10-18T13:11:01.394Z,5.85
2022-10-18T13:13:54.725Z,8.35
2022-10-18T13:17:00.607Z,5.95
2022-10-18T13:19:30.107Z,5.65
2022-10-18T13:22:30.548Z,4.05
2022-10-18T13:25:15.812Z,7.70
2022-10-18T13:27:56.273Z,5.90
2022-10-18T13:30:33.396Z,5.13
2022-10-18T13:33:34.821Z,5.30
2022-10-18T13:36:03.991Z,5.80
2022-10-18T13:38:57.824Z,6.28
2022-10-18T13:41:32.769Z,7.40
2022-10-18T13:44:30.669Z,6.25
2022-10-18T13:46:57.155Z,7.57
2022-10-18T13:49:40.204Z,4.72
2022-10-18T13:52:28.435Z,7.78
2022-10-18T13:55:19.320Z,6.20
2022-10-18T13:57:57.928Z,6.47
2022-10-18T14:00:49.133Z,7.03
2022-10-18T14:03:58.870Z,5.38
2022-10-18T14:06:33.531Z,5.40
2022-10-18T14:09:26.229Z,6.38
2022-10-18T14:12:33.526Z,8.80
2022-10-18T14:15:16.580Z,8.38
2022-10-18T14:17:51.931Z,8.07
2022-10-18T14:20:34.449Z,8.07
2022-10-18T14:23:12.927Z,8.40
2022-10-18T14:25:39.516Z,4.15
2022-10-18T14:28:12.321Z,4.57
2022-10-18T14:30:59.377Z,6.10
2022-10-18T14:36:19.677Z,5.80
2022-10-18T14:38:57.696Z,7.90
2022-10-18T14:41:29.607Z,5.25
2022-10-18T14:44:14.707Z,6.43
2022-10-18T14:47:04.470Z,4.57
2022-10-18T14:49:31.482Z,5.28
2022-10-18T14:51:59.556Z,10.68
2022-10-18T14:54:34.425Z,5.80
2022-10-18T14:57:05.575Z,6.15
2022-10-18T15:00:06.569Z,7.85
2022-10-18T15:15:33.506Z,6.68
2022-10-18T15:18:00.502Z,6.78
2022-10-18T15:20:32.647Z,7.88
2022-10-18T15:23:27.471Z,9.27
2022-10-18T15:26:02.448Z,6.55
2022-10-18T15:28:52.236Z,4.53
2022-10-18T15:31:24.549Z,9.48
2022-10-18T15:33:51.688Z,5.47
2022-10-18T15:36:29.717Z,4.18
2022-10-18T15:39:07.580Z,5.50
2022-10-18T15:41:46.128Z,5.20
2022-10-18T15:44:42.426Z,4.80
2022-10-18T15:47:12.502Z,4.97
2022-10-18T15:49:45.061Z,5.45
2022-10-18T15:52:35.190Z,5.32
2022-10-18T15:55:34.689Z,5.32
2022-10-18T15:58:06.405Z,5.45
2022-10-18T16:00:43.285Z,4.57
2022-10-18T16:03:14.690Z,7.97
2022-10-18T16:05:46.546Z,7.05
2022-10-18T16:08:49.391Z,4.50
2022-10-18T16:11:25.697Z,4.88
2022-10-18T16:13:55.215Z,7.13
2022-10-18T16:16:26.782Z,5.05
2022-10-18T16:18:53.611Z,4.97
2022-10-18T16:21:28.291Z,5.82
2022-10-18T16:23:55.084Z,8.07
2022-10-18T16:26:22.599Z,5.22
2022-10-18T16:28:50.229Z,6.63
2022-10-18T16:31:22.219Z,4.50
2022-10-18T16:33:50.829Z,5.68
2022-10-18T16:36:19.366Z,7.47
2022-10-18T16:38:46.386Z,5.25
2022-10-18T16:41:15.907Z,5.05
2022-10-18T16:43:44.507Z,5.15
2022-10-18T16:46:19.660Z,6.65
2022-10-18T16:48:46.826Z,6.25
2022-10-18T16:51:14.673Z,4.82
2022-10-18T16:53:41.772Z,7.45
2022-10-18T16:56:17.024Z,5.10
2022-10-18T16:58:43.950Z,5.93
2022-10-18T17:01:16.365Z,6.90
2022-10-18T17:03:43.637Z,6.50
2022-10-18T17:06:17.751Z,6.28
2022-10-18T17:08:44.473Z,4.78
2022-10-18T17:11:12.430Z,10.05
2022-10-18T17:13:40.057Z,5.68
2022-10-18T17:18:33.526Z,6.15
2022-10-18T17:21:03.046Z,9.95
2022-10-18T17:23:30.387Z,5.55
2022-10-18T17:26:05.356Z,6.85
2022-10-18T17:28:34.230Z,5.97
2022-10-18T17:31:00.919Z,6.28
2022-10-18T17:33:27.483Z,8.65
2022-10-18T17:35:54.076Z,7.63
2022-10-18T17:38:20.680Z,7.70
2022-10-18T17:40:47.628Z,5.68
2022-10-18T17:43:14.368Z,6.65
2022-10-18T17:45:54.662Z,7.07
2022-10-18T17:48:22.822Z,7.20
2022-10-18T17:50:49.378Z,10.52
2022-10-18T17:53:18.328Z,6.18
2022-10-18T17:55:45.045Z,6.53
2022-10-18T17:58:12.040Z,6.00
2022-10-18T18:00:38.772Z,7.18
2022-10-18T18:03:05.511Z,6.00
2022-10-18T18:05:34.044Z,6.90
2022-10-18T18:08:03.846Z,7.40
2022-10-18T18:10:33.370Z,7.07
2022-10-18T18:13:00.423Z,7.10
2022-10-18T18:15:27.098Z,8.07
2022-10-18T18:17:57.409Z,4.85
2022-10-18T18:20:26.456Z,7.90
2022-10-18T18:22:54.914Z,6.43
2022-10-18T18:25:21.576Z,6.53
2022-10-18T18:27:48.307Z,6.43
2022-10-18T18:30:17.638Z,6.18
2022-10-18T18:32:44.406Z,6.43
2022-10-18T18:35:11.081Z,9.90
2022-10-18T18:37:37.870Z,7.93
2022-10-18T18:40:04.760Z,6.85
2022-10-18T18:42:32.264Z,6.05
2022-10-18T18:47:27.046Z,6.68
2022-10-18T18:49:53.971Z,6.38
2022-10-18T18:52:20.530Z,7.03
2022-10-18T18:54:47.019Z,8.93
2022-10-18T18:57:13.604Z,8.27
2022-10-18T18:59:40.139Z,6.32
2022-10-18T19:02:06.721Z,10.50
2022-10-18T19:04:34.945Z,8.85
2022-10-18T19:07:02.545Z,7.82
2022-10-18T19:09:29.195Z,8.45
2022-10-18T19:11:56.538Z,5.85
2022-10-18T19:14:25.406Z,10.65
2022-10-18T19:16:53.916Z,8.68
2022-10-18T19:19:22.644Z,6.57
2022-10-18T19:22:00.684Z,8.35
2022-10-18T19:24:28.652Z,6.07
2022-10-18T19:27:00.828Z,7.75
2022-10-18T19:29:28.586Z,6.95
2022-10-18T19:31:57.339Z,6.75
2022-10-18T19:34:26.272Z,9.88
2022-10-18T19:36:52.886Z,8.88
2022-10-18T19:39:21.934Z,8.38
2022-10-18T19:41:50.994Z,8.10
2022-10-18T19:44:18.936Z,7.32
2022-10-18T19:46:45.634Z,6.82
2022-10-18T19:49:12.185Z,10.27
2022-10-18T19:51:38.784Z,7.07
2022-10-18T19:54:05.632Z,6.72
2022-10-18T19:56:32.212Z,6.85
2022-10-18T19:58:59.359Z,6.32
2022-10-18T20:01:27.998Z,8.57
2022-10-18T20:03:54.720Z,7.32
2022-10-18T20:06:21.631Z,6.85
2022-10-18T20:08:48.814Z,6.72
2022-10-18T20:11:17.755Z,7.32
2022-10-18T20:13:44.428Z,8.18
2022-10-18T20:16:12.650Z,9.15
2022-10-18T20:18:39.278Z,8.85
2022-10-18T20:21:07.116Z,7.15
2022-10-18T20:23:37.974Z,6.95
2022-10-18T20:26:10.733Z,8.85
2022-10-18T20:28:38.231Z,6.97
2022-10-18T20:31:07.390Z,7.13
2022-10-18T20:33:34.856Z,7.60
2022-10-18T20:36:09.893Z,8.57
2022-10-18T20:38:38.625Z,9.57
2022-10-18T20:41:16.911Z,8.55
2022-10-18T20:43:44.215Z,7.90
2022-10-18T20:46:10.954Z,7.75
2022-10-18T20:48:38.802Z,9.70
2022-10-18T20:51:12.684Z,8.00
2022-10-18T20:53:39.900Z,7.40
2022-10-18T20:56:14.596Z,7.68
2022-10-18T20:58:42.829Z,8.30
2022-10-18T21:01:30.820Z,8.30
2022-10-18T21:04:00.251Z,18.25
2022-10-18T21:06:28.829Z,7.70
2022-10-18T21:09:00.141Z,10.40
2022-10-18T21:11:28.244Z,8.40
2022-10-18T21:13:57.476Z,7.63
2022-10-18T21:16:24.235Z,8.93
2022-10-18T21:18:51.039Z,7.50
2022-10-18T21:21:24.691Z,11.70
2022-10-18T21:23:52.240Z,7.15
2022-10-18T21:26:23.570Z,9.43
2022-10-18T21:28:51.229Z,11.50
2022-10-18T21:31:20.557Z,14.40
2022-10-18T21:33:48.106Z,9.88
2022-10-18T21:36:14.891Z,12.77
2022-10-18T21:38:44.688Z,12.13
2022-10-18T21:41:13.315Z,9.95
2022-10-18T21:43:41.880Z,17.42
2022-10-18T21:46:10.043Z,11.05
2022-10-18T21:48:37.048Z,10.40
2022-10-18T21:51:07.865Z,11.27
2022-10-18T21:53:34.683Z,10.07
2022-10-18T21:56:09.803Z,10.45
2022-10-18T21:58:37.169Z,12.95
2022-10-18T22:01:09.397Z,11.48
2022-10-18T22:03:36.253Z,13.38
2022-10-18T22:06:09.521Z,9.25
2022-10-18T22:08:36.256Z,9.57
2022-10-18T22:11:03.162Z,9.57
2022-10-18T22:13:29.797Z,15.18
2022-10-18T22:15:56.450Z,10.20
2022-10-18T22:18:23.061Z,9.63
2022-10-18T22:21:00.558Z,8.15
2022-10-18T22:23:43.680Z,19.00
2022-10-18T22:26:23.271Z,11.90
2022-10-18T22:29:00.823Z,14.18
2022-10-18T22:31:29.870Z,11.18
2022-10-18T22:33:58.854Z,14.23
2022-10-18T22:36:26.334Z,14.73
2022-10-18T22:38:53.023Z,10.90
2022-10-18T22:41:20.080Z,12.65
2022-10-18T22:43:48.311Z,13.90
2022-10-18T22:46:15.422Z,16.48
2022-10-18T22:48:42.439Z,13.23
2022-10-18T22:51:09.673Z,14.05
2022-10-18T22:53:37.055Z,17.48
2022-10-18T22:56:04.272Z,17.65
2022-10-18T22:58:30.877Z,12.68
2022-10-18T23:01:05.708Z,211.82
2022-10-18T23:03:32.696Z,16.80
2022-10-18T23:05:59.619Z,14.65
2022-10-18T23:08:26.667Z,10.20
2022-10-18T23:10:55.552Z,10.40
2022-10-18T23:13:23.616Z,10.07
2022-10-18T23:15:50.483Z,16.67
2022-10-18T23:18:17.685Z,10.20
2022-10-18T23:20:44.803Z,10.30
2022-10-18T23:23:12.645Z,8.75
2022-10-18T23:25:39.407Z,11.10
2022-10-18T23:28:06.388Z,10.55
2022-10-18T23:30:33.772Z,9.15
2022-10-18T23:33:00.278Z,8.48
2022-10-18T23:35:29.309Z,12.18
2022-10-18T23:37:56.359Z,8.68
2022-10-18T23:40:22.851Z,8.95
2022-10-18T23:42:49.423Z,8.25
2022-10-18T23:45:16.025Z,14.48
2022-10-18T23:47:42.623Z,9.18
2022-10-18T23:50:09.831Z,9.20
2022-10-18T23:52:36.392Z,10.85
2022-10-18T23:55:03.007Z,9.90
2022-10-18T23:57:29.629Z,10.38
2022-10-18T23:59:56.266Z,10.02
